River View Park, Pennsylvania
Current Conditions -  °F | °C
As of 3:09 AM on Monday 24 Nov 2014 (Local Time) from KRDG Reporting Station
Moderate Rain Moderate Rain  
Wind Chill: 59°   Ceiling: 1200
Heat Index: 59°   Visibility: 5mi
Dew Point: 56°   Wind: 14mph
Humidity: 90%   Direction: 140°SE
Pressure: 29.65"   Gusts: 22mph
Location:  40.3999°N, 75.9335°W
Report Text: KRDG 240809Z AUTO 14012G19KT 5SM RA BR BKN012 OVC021 15/13 A2965 RMK AO2 P0001 T01500133
Loading
Personal Weather Stations






























Interactive Weather Map New forecast layout! Learn more

10-Day Weather Forecast

Advertisements
Track Severe Weather on mobile